Time;durP1;ratioP1;P1;durP2;ratioP2;P2;SDS_P1;SDS_P2;PMS_P1;PMS_P2;Temp;Humidity;BMP_temperature;BMP_pressure;BME280_temperature;BME280_humidity;BME280_pressure;Samples;Min_cycle;Max_cycle;Signal;HPM_P1;HPM_P2
2022/03/03 00:01:30;;;;;;;;;34.67;31.67;;;;;21.66;39.03;101339.09;112042;1244;19308;-49
2022/03/03 00:03:56;;;;;;;;;38.00;32.00;;;;;21.67;38.86;101330.30;112017;1244;22326;-48
2022/03/03 00:06:22;;;;;;;;;38.00;32.00;;;;;21.67;39.08;101327.94;112047;1244;19047;-49
2022/03/03 00:08:48;;;;;;;;;35.00;30.00;;;;;21.68;38.93;101327.30;111997;1244;23631;-49
2022/03/03 00:11:14;;;;;;;;;35.50;31.50;;;;;21.67;38.88;101328.08;112009;1245;20360;-49
2022/03/03 00:13:40;;;;;;;;;33.00;30.00;;;;;21.68;38.86;101325.65;111967;1245;19836;-49
2022/03/03 00:16:05;;;;;;;;;28.00;26.00;;;;;21.68;39.08;101325.23;112001;1245;19575;-49
2022/03/03 00:18:31;;;;;;;;;36.50;32.00;;;;;21.68;38.95;101322.31;112069;1245;23158;-49
2022/03/03 00:20:57;;;;;;;;;34.00;33.00;;;;;21.69;38.86;101317.91;112016;1244;19119;-50
2022/03/03 00:23:23;;;;;;;;;34.00;29.50;;;;;21.68;38.79;101320.16;112000;1244;19248;-49
2022/03/03 00:25:49;;;;;;;;;37.00;33.00;;;;;21.69;39.00;101318.34;112001;1245;19934;-49
2022/03/03 00:28:15;;;;;;;;;32.00;29.00;;;;;21.69;38.80;101316.34;112016;1244;18925;-49
2022/03/03 00:30:41;;;;;;;;;36.00;30.67;;;;;21.68;38.87;101312.83;112064;1245;19325;-49
2022/03/03 00:33:06;;;;;;;;;41.00;33.50;;;;;21.69;38.82;101314.90;112013;1245;19932;-49
2022/03/03 00:35:32;;;;;;;;;36.00;28.50;;;;;21.69;38.96;101311.09;112050;1244;23307;-51
2022/03/03 00:37:58;;;;;;;;;37.00;32.00;;;;;21.69;38.68;101303.69;112057;1244;19381;-49
2022/03/03 00:40:24;;;;;;;;;33.00;31.67;;;;;21.68;38.72;101301.95;111957;1245;23209;-48
2022/03/03 00:42:50;;;;;;;;;33.00;30.00;;;;;21.69;38.96;101304.73;112016;1245;19077;-48
2022/03/03 00:45:16;;;;;;;;;37.00;32.67;;;;;21.69;38.86;101304.34;112007;1245;24900;-49
2022/03/03 00:47:42;;;;;;;;;36.00;33.00;;;;;21.69;38.83;101299.48;112031;1245;24370;-49
2022/03/03 00:50:08;;;;;;;;;33.67;32.67;;;;;21.69;38.76;101294.95;111991;1245;18997;-48
2022/03/03 00:52:33;;;;;;;;;36.33;33.67;;;;;21.69;38.58;101298.16;112023;1245;19629;-48
2022/03/03 00:55:00;;;;;;;;;38.50;35.00;;;;;21.69;38.61;101299.83;112009;1245;20042;-50
2022/03/03 00:57:26;;;;;;;;;39.67;35.67;;;;;21.70;38.63;101293.96;111970;1245;19327;-52
2022/03/03 00:59:52;;;;;;;;;41.00;36.00;;;;;21.69;38.68;101287.45;112033;1245;19312;-52
2022/03/03 01:02:18;;;;;;;;;34.00;32.50;;;;;21.69;38.56;101280.60;112027;1245;22952;-48
2022/03/03 01:04:44;;;;;;;;;43.00;35.00;;;;;21.68;38.62;101280.87;112031;1245;23100;-48
2022/03/03 01:07:10;;;;;;;;;34.00;32.00;;;;;21.68;38.74;101276.00;112030;1245;19233;-52
2022/03/03 01:09:36;;;;;;;;;32.00;29.50;;;;;21.67;38.67;101270.92;111684;1245;484179;-48
2022/03/03 01:12:01;;;;;;;;;37.50;34.50;;;;;21.67;38.77;101268.77;112057;1245;19205;-48
2022/03/03 01:14:27;;;;;;;;;34.00;28.50;;;;;21.68;38.61;101270.38;112076;1245;23579;-49
2022/03/03 01:16:53;;;;;;;;;37.00;32.00;;;;;21.67;38.69;101272.59;112036;1245;21157;-49
2022/03/03 01:19:19;;;;;;;;;38.00;32.50;;;;;21.66;38.66;101264.69;112039;1245;19066;-49
2022/03/03 01:21:45;;;;;;;;;32.00;31.00;;;;;21.67;38.65;101261.84;111982;1245;20819;-49
2022/03/03 01:24:11;;;;;;;;;31.00;29.00;;;;;21.67;38.58;101257.11;112033;1245;20146;-49
2022/03/03 01:26:37;;;;;;;;;33.50;31.50;;;;;21.67;38.64;101256.09;112039;1245;19080;-49
2022/03/03 01:29:03;;;;;;;;;37.00;32.00;;;;;21.67;38.55;101257.11;112041;1245;20973;-49
2022/03/03 01:31:28;;;;;;;;;33.00;29.50;;;;;21.66;38.48;101252.71;112035;1245;23734;-50
2022/03/03 01:33:54;;;;;;;;;37.00;33.00;;;;;21.66;38.72;101250.84;112070;1245;19153;-49
2022/03/03 01:36:20;;;;;;;;;33.00;29.00;;;;;21.66;38.58;101253.94;111922;1244;19276;-48
2022/03/03 01:38:46;;;;;;;;;36.00;32.50;;;;;21.66;38.47;101251.80;112049;1245;20160;-49
2022/03/03 01:41:12;;;;;;;;;31.33;28.00;;;;;21.67;38.68;101250.08;112023;1245;18929;-44
2022/03/03 01:43:38;;;;;;;;;32.00;29.00;;;;;21.66;38.62;101250.33;112038;1245;19100;-49
2022/03/03 01:46:04;;;;;;;;;36.00;33.50;;;;;21.66;38.66;101251.39;112065;1245;21405;-50
2022/03/03 01:48:30;;;;;;;;;36.50;30.00;;;;;21.67;38.62;101252.81;112041;1245;24185;-51
2022/03/03 01:50:56;;;;;;;;;34.00;32.00;;;;;21.67;38.35;101251.89;112029;1245;19647;-49
2022/03/03 01:53:22;;;;;;;;;29.50;28.00;;;;;21.67;38.45;101250.42;112021;1245;23373;-48
2022/03/03 01:55:47;;;;;;;;;39.50;29.50;;;;;21.67;38.43;101251.31;112040;1245;19570;-48
2022/03/03 01:58:13;;;;;;;;;36.50;32.50;;;;;21.67;38.31;101250.22;111956;1245;19320;-46
2022/03/03 02:00:39;;;;;;;;;40.00;32.00;;;;;21.67;38.52;101250.84;112047;1245;21330;-49
2022/03/03 02:03:06;;;;;;;;;37.00;32.00;;;;;21.67;38.20;101246.57;111879;1245;19072;-49
2022/03/03 02:05:32;;;;;;;;;33.00;31.33;;;;;21.67;38.35;101241.23;111850;1245;20823;-50
2022/03/03 02:07:58;;;;;;;;;33.00;30.50;;;;;21.66;38.53;101236.14;112060;1244;20217;-49
2022/03/03 02:10:24;;;;;;;;;33.33;29.67;;;;;21.66;38.51;101233.55;112056;1245;19353;-49
2022/03/03 02:12:51;;;;;;;;;33.00;30.00;;;;;21.65;38.36;101226.42;112066;1245;19388;-50
2022/03/03 02:15:17;;;;;;;;;33.33;30.33;;;;;21.65;38.52;101229.52;112045;1245;20226;-50
2022/03/03 02:17:42;;;;;;;;;36.33;34.00;;;;;21.66;38.27;101230.18;112085;1245;19820;-49
2022/03/03 02:20:08;;;;;;;;;33.50;29.00;;;;;21.66;38.45;101229.46;112032;1245;23203;-48
2022/03/03 02:22:35;;;;;;;;;30.50;28.50;;;;;21.66;38.37;101219.30;112017;1245;23138;-49
2022/03/03 02:25:00;;;;;;;;;36.00;31.33;;;;;21.65;38.33;101215.58;112078;1245;19219;-49
2022/03/03 02:27:26;;;;;;;;;33.00;28.50;;;;;21.64;38.52;101207.14;112065;1245;23610;-50
2022/03/03 02:29:52;;;;;;;;;32.00;29.00;;;;;21.64;38.46;101206.09;111974;1245;20666;-49
2022/03/03 02:32:18;;;;;;;;;32.00;29.00;;;;;21.63;38.53;101199.27;112011;1245;19749;-49
2022/03/03 02:34:44;;;;;;;;;37.50;34.00;;;;;21.62;38.57;101196.27;111922;1245;19366;-47
2022/03/03 02:37:10;;;;;;;;;36.50;31.00;;;;;21.63;38.55;101195.61;111913;1244;20077;-47
2022/03/03 02:39:36;;;;;;;;;37.50;34.00;;;;;21.61;38.53;101205.01;112069;1245;19086;-51
2022/03/03 02:42:02;;;;;;;;;33.00;30.00;;;;;21.61;38.46;101199.79;112043;1245;19546;-49
2022/03/03 02:44:27;;;;;;;;;35.00;32.00;;;;;21.61;38.29;101201.17;112030;1245;20111;-48
2022/03/03 02:46:53;;;;;;;;;36.50;33.00;;;;;21.61;38.35;101205.25;112074;1245;24243;-49
2022/03/03 02:49:19;;;;;;;;;32.00;27.00;;;;;21.61;38.45;101201.46;112030;1245;19459;-49
2022/03/03 02:51:45;;;;;;;;;40.50;30.50;;;;;21.61;38.22;101201.97;112068;1245;19934;-50
2022/03/03 02:54:11;;;;;;;;;32.00;29.00;;;;;21.60;38.58;101200.58;112041;1245;19905;-48
2022/03/03 02:57:53;;;;;;;;;31.00;29.50;;;;;21.61;38.32;101202.34;112021;1245;19321;-49
2022/03/03 02:59:23;;;;;;;;;35.00;30.00;;;;;21.62;38.35;101197.88;112042;1245;22786;-50
2022/03/03 03:01:48;;;;;;;;;34.00;32.50;;;;;21.60;38.50;101201.66;112036;1245;19192;-49
2022/03/03 03:04:14;;;;;;;;;32.50;28.50;;;;;21.62;38.27;101199.38;112038;1245;23060;-49
2022/03/03 03:06:40;;;;;;;;;32.00;28.50;;;;;21.61;38.23;101200.84;112021;1245;19959;-48
2022/03/03 03:09:06;;;;;;;;;37.50;34.00;;;;;21.61;38.22;101197.40;111979;1245;19228;-48
2022/03/03 03:11:32;;;;;;;;;40.00;33.50;;;;;21.62;38.49;101193.71;112032;1245;19359;-50
2022/03/03 03:13:58;;;;;;;;;34.50;30.50;;;;;21.62;38.28;101186.24;112032;1245;19993;-48
2022/03/03 03:16:24;;;;;;;;;40.00;36.00;;;;;21.62;38.12;101181.88;111986;1245;23054;-49
2022/03/03 03:18:50;;;;;;;;;37.00;30.00;;;;;21.62;38.31;101178.74;112044;1245;19415;-50
2022/03/03 03:21:15;;;;;;;;;35.50;32.50;;;;;21.63;38.30;101180.45;112035;1245;20018;-49
2022/03/03 03:23:41;;;;;;;;;32.00;30.33;;;;;21.63;38.38;101183.04;112039;1245;19223;-48
2022/03/03 03:26:07;;;;;;;;;37.00;32.00;;;;;21.62;38.29;101178.27;112027;1245;19941;-51
2022/03/03 03:28:33;;;;;;;;;35.50;31.50;;;;;21.62;38.25;101180.04;111891;1245;21249;-51
2022/03/03 03:30:59;;;;;;;;;36.50;33.00;;;;;21.62;38.25;101172.57;112084;1244;19083;-51
2022/03/03 03:33:25;;;;;;;;;38.67;33.33;;;;;21.62;38.30;101171.69;112046;1245;19460;-49
2022/03/03 03:35:51;;;;;;;;;37.00;32.00;;;;;21.62;38.21;101176.23;112040;1245;20289;-48
2022/03/03 03:38:17;;;;;;;;;32.00;30.00;;;;;21.62;38.28;101169.67;111997;1245;19090;-46
2022/03/03 03:40:42;;;;;;;;;37.00;29.50;;;;;21.62;38.22;101170.94;112027;1245;19630;-49
2022/03/03 03:43:08;;;;;;;;;33.00;31.00;;;;;21.62;38.32;101167.73;112065;1245;22886;-49
2022/03/03 03:45:35;;;;;;;;;36.50;32.50;;;;;21.60;38.32;101166.62;112032;1245;19007;-49
2022/03/03 03:48:01;;;;;;;;;33.00;30.00;;;;;21.60;38.34;101170.98;112058;1245;19609;-49
2022/03/03 03:50:28;;;;;;;;;37.00;32.00;;;;;21.59;38.15;101174.83;112008;1245;23028;-49
2022/03/03 03:52:54;;;;;;;;;39.33;33.00;;;;;21.60;38.38;101176.44;112058;1245;19286;-49
2022/03/03 03:55:20;;;;;;;;;40.00;33.00;;;;;21.60;38.24;101171.02;112014;1245;19333;-49
2022/03/03 03:57:46;;;;;;;;;37.00;33.00;;;;;21.59;38.11;101168.53;112067;1245;22270;-50
2022/03/03 04:00:13;;;;;;;;;36.00;33.00;;;;;21.59;38.30;101170.88;112013;1245;22135;-48
2022/03/03 04:02:39;;;;;;;;;33.67;29.33;;;;;21.59;38.11;101168.86;111993;1245;19470;-49
2022/03/03 04:05:06;;;;;;;;;37.50;35.50;;;;;21.59;38.20;101167.06;112009;1245;20171;-48
2022/03/03 04:07:32;;;;;;;;;33.00;33.00;;;;;21.59;38.01;101166.76;112020;1245;19161;-49
2022/03/03 04:09:57;;;;;;;;;36.50;33.00;;;;;21.59;38.17;101162.56;112024;1245;19176;-50
2022/03/03 04:12:23;;;;;;;;;32.50;32.00;;;;;21.58;38.28;101155.39;112027;1245;22427;-46
2022/03/03 04:14:49;;;;;;;;;33.00;29.00;;;;;21.58;38.26;101159.88;112041;1245;19151;-48
2022/03/03 04:17:15;;;;;;;;;40.00;33.50;;;;;21.59;38.29;101159.29;112017;1245;19446;-50
2022/03/03 04:19:41;;;;;;;;;34.50;30.00;;;;;21.57;38.32;101155.29;112009;1245;23112;-48
2022/03/03 04:22:07;;;;;;;;;33.00;29.00;;;;;21.57;38.30;101156.35;112031;1245;19436;-50
2022/03/03 04:24:33;;;;;;;;;35.00;32.00;;;;;21.58;38.14;101160.84;112038;1245;22009;-48
2022/03/03 04:26:58;;;;;;;;;29.50;27.00;;;;;21.57;38.06;101162.34;112054;1245;23590;-49
2022/03/03 04:29:24;;;;;;;;;32.50;28.00;;;;;21.57;38.35;101156.92;112022;1244;19007;-48
2022/03/03 04:31:53;;;;;;;;;33.50;30.50;;;;;21.56;38.27;101157.20;112026;1245;19722;-49
2022/03/03 04:34:19;;;;;;;;;38.33;34.00;;;;;21.57;38.05;101155.45;112046;1245;20298;-49
2022/03/03 04:36:45;;;;;;;;;36.00;33.00;;;;;21.57;38.19;101157.50;112063;1244;22913;-50
2022/03/03 04:39:11;;;;;;;;;36.33;32.00;;;;;21.56;38.09;101156.99;112040;1245;19332;-46
2022/03/03 04:41:37;;;;;;;;;36.33;33.33;;;;;21.56;38.21;101154.34;112061;1245;20252;-51
2022/03/03 04:44:03;;;;;;;;;37.00;33.00;;;;;21.56;38.06;101148.67;112054;1245;19162;-48
2022/03/03 04:46:29;;;;;;;;;39.50;37.50;;;;;21.57;38.21;101149.48;112041;1245;22170;-47
2022/03/03 04:48:59;;;;;;;;;37.00;32.00;;;;;21.57;38.18;101154.90;112045;1245;20038;-49
2022/03/03 04:51:25;;;;;;;;;33.33;30.33;;;;;21.57;38.05;101160.70;112092;1245;20666;-49
2022/03/03 04:53:51;;;;;;;;;37.00;29.00;;;;;21.58;38.02;101159.02;112010;1245;23869;-50
2022/03/03 04:56:17;;;;;;;;;37.50;33.50;;;;;21.57;38.13;101153.04;112069;1245;19890;-48
2022/03/03 04:58:44;;;;;;;;;34.67;31.00;;;;;21.58;37.86;101154.64;112046;1245;23459;-48
2022/03/03 05:01:11;;;;;;;;;33.00;30.33;;;;;21.57;37.95;101149.27;112056;1245;19605;-48
2022/03/03 05:03:36;;;;;;;;;33.50;31.00;;;;;21.58;37.93;101147.74;112080;1245;20135;-50
2022/03/03 05:06:02;;;;;;;;;38.00;36.00;;;;;21.57;37.92;101144.91;112020;1245;23715;-48
2022/03/03 05:08:28;;;;;;;;;33.50;31.00;;;;;21.57;38.11;101146.55;112021;1245;22640;-49
2022/03/03 05:10:54;;;;;;;;;37.00;32.00;;;;;21.57;38.03;101146.59;112033;1245;20092;-49
2022/03/03 05:13:20;;;;;;;;;40.33;36.33;;;;;21.57;37.95;101142.73;112022;1245;19182;-48
2022/03/03 05:15:46;;;;;;;;;36.00;33.00;;;;;21.57;37.95;101149.84;112041;1245;19914;-48
2022/03/03 05:18:12;;;;;;;;;39.00;33.00;;;;;21.56;37.92;101142.46;112024;1245;20231;-48
2022/03/03 05:20:38;;;;;;;;;36.50;35.50;;;;;21.57;37.95;101139.67;112021;1245;21405;-48
2022/03/03 05:23:04;;;;;;;;;39.00;32.00;;;;;21.56;38.00;101136.47;112005;1245;19402;-49
2022/03/03 05:25:30;;;;;;;;;34.50;31.50;;;;;21.56;38.01;101132.81;112056;1245;19936;-49
2022/03/03 05:27:56;;;;;;;;;36.00;32.00;;;;;21.56;37.98;101132.81;111972;1245;23321;-51
2022/03/03 05:30:21;;;;;;;;;30.00;29.00;;;;;21.56;38.06;101131.02;112038;1245;19760;-48
2022/03/03 05:32:49;;;;;;;;;36.50;29.00;;;;;21.57;38.01;101133.70;112005;1245;20013;-51
2022/03/03 05:35:15;;;;;;;;;36.50;33.50;;;;;21.57;37.85;101140.93;112053;1245;19265;-48
2022/03/03 05:37:41;;;;;;;;;36.50;33.00;;;;;21.57;38.04;101143.65;112009;1245;19315;-50
2022/03/03 05:40:07;;;;;;;;;38.00;34.00;;;;;21.57;38.06;101144.38;112020;1245;21443;-50
2022/03/03 05:42:33;;;;;;;;;40.50;37.00;;;;;21.56;37.86;101149.36;112027;1245;19349;-49
2022/03/03 05:44:58;;;;;;;;;42.00;31.50;;;;;21.57;38.00;101156.38;112018;1245;19298;-48
2022/03/03 05:47:24;;;;;;;;;38.00;32.00;;;;;21.57;38.00;101154.98;112024;1245;20011;-48
2022/03/03 05:49:52;;;;;;;;;34.67;33.33;;;;;21.57;37.86;101152.96;112012;1245;19169;-52
2022/03/03 05:52:17;;;;;;;;;31.67;29.33;;;;;21.57;37.93;101154.06;112017;1245;19468;-51
2022/03/03 05:54:43;;;;;;;;;31.50;29.00;;;;;21.56;37.90;101151.58;112044;1244;20018;-45
2022/03/03 05:57:09;;;;;;;;;32.00;29.00;;;;;21.56;38.04;101153.92;112044;1245;19336;-54
2022/03/03 05:59:35;;;;;;;;;32.00;29.00;;;;;21.56;38.04;101154.17;111966;1244;23132;-51
2022/03/03 06:02:01;;;;;;;;;37.50;33.50;;;;;21.56;38.05;101159.21;111974;1245;20275;-55
2022/03/03 06:04:27;;;;;;;;;36.00;33.00;;;;;21.55;38.00;101158.95;111997;1245;19786;-51
2022/03/03 06:06:53;;;;;;;;;36.50;32.00;;;;;21.56;37.81;101156.73;112062;1245;22614;-49
2022/03/03 06:09:19;;;;;;;;;32.50;28.50;;;;;21.56;37.99;101160.13;112032;1245;20109;-50
2022/03/03 06:11:47;;;;;;;;;32.33;29.67;;;;;21.56;37.99;101161.80;112052;1245;19347;-51
2022/03/03 06:14:12;;;;;;;;;36.67;33.67;;;;;21.55;38.10;101162.93;112053;1245;20967;-48
2022/03/03 06:16:39;;;;;;;;;36.00;29.50;;;;;21.55;38.05;101162.59;112018;1244;20152;-51
2022/03/03 06:19:05;;;;;;;;;39.33;33.33;;;;;21.55;38.00;101161.16;112125;1244;19231;-51
2022/03/03 06:21:31;;;;;;;;;33.00;29.00;;;;;21.55;37.99;101164.27;112035;1245;19448;-50
2022/03/03 06:23:57;;;;;;;;;40.50;33.50;;;;;21.55;38.05;101162.38;112009;1245;23684;-51
2022/03/03 06:26:22;;;;;;;;;32.00;29.00;;;;;21.55;37.81;101154.45;112023;1245;19097;-50
2022/03/03 06:28:48;;;;;;;;;32.00;28.00;;;;;21.55;37.97;101155.73;112048;1245;23990;-51
2022/03/03 06:31:14;;;;;;;;;35.00;32.00;;;;;21.56;38.14;101159.24;112009;1245;20000;-49
2022/03/03 06:33:40;;;;;;;;;34.50;30.00;;;;;21.53;37.84;101159.36;112018;1245;18923;-49
2022/03/03 06:36:06;;;;;;;;;36.00;31.67;;;;;21.55;37.97;101163.55;111961;1245;20902;-51
2022/03/03 06:38:32;;;;;;;;;39.50;32.50;;;;;21.57;37.95;101157.09;112008;1245;19945;-49
2022/03/03 06:40:58;;;;;;;;;35.50;32.00;;;;;21.58;38.14;101149.56;111992;1245;23433;-50
2022/03/03 06:43:24;;;;;;;;;31.00;27.50;;;;;21.60;38.24;101157.82;112003;1245;19987;-51
2022/03/03 06:45:50;;;;;;;;;33.33;29.33;;;;;21.68;38.60;101164.29;112052;1245;20411;-50
2022/03/03 06:48:16;;;;;;;;;33.00;30.00;;;;;21.75;38.63;101170.95;111984;1245;19910;-50
2022/03/03 06:50:42;;;;;;;;;33.00;31.67;;;;;21.76;38.77;101162.60;112036;1245;19502;-49
2022/03/03 06:53:08;;;;;;;;;30.50;28.00;;;;;21.81;39.67;101165.86;111987;1245;20232;-50
2022/03/03 06:55:34;;;;;;;;;34.00;32.00;;;;;21.84;40.48;101172.60;112014;1245;23182;-50
2022/03/03 06:58:00;;;;;;;;;38.00;33.00;;;;;21.89;40.80;101173.60;112056;1245;19262;-48
2022/03/03 07:00:26;;;;;;;;;32.00;29.00;;;;;21.89;41.11;101171.58;112009;1245;20392;-51
2022/03/03 07:02:53;;;;;;;;;31.00;28.50;;;;;21.87;41.40;101172.49;112015;1245;19103;-50
2022/03/03 07:05:19;;;;;;;;;32.67;28.67;;;;;21.88;41.50;101174.14;112021;1244;19600;-50
2022/03/03 07:07:45;;;;;;;;;34.00;30.50;;;;;21.88;41.23;101173.97;111987;1245;20159;-50
2022/03/03 07:10:11;;;;;;;;;28.50;26.00;;;;;21.86;41.52;101172.80;112044;1245;19396;-50
2022/03/03 07:12:37;;;;;;;;;32.00;29.50;;;;;21.87;41.50;101172.28;112020;1245;23261;-55
2022/03/03 07:15:03;;;;;;;;;34.00;30.00;;;;;21.84;41.30;101164.05;111959;1245;20009;-50
2022/03/03 07:17:28;;;;;;;;;31.00;29.00;;;;;21.83;40.80;101164.67;111992;1245;23385;-50
2022/03/03 07:19:54;;;;;;;;;38.00;28.50;;;;;21.82;40.86;101165.79;112042;1245;20058;-51
2022/03/03 07:22:20;;;;;;;;;37.50;32.00;;;;;21.81;40.60;101172.98;112027;1244;20999;-51
2022/03/03 07:24:46;;;;;;;;;38.33;33.00;;;;;21.80;40.70;101174.77;112097;1245;23187;-51
2022/03/03 07:27:12;;;;;;;;;42.00;37.50;;;;;21.79;40.65;101171.77;111993;1245;20736;-50
2022/03/03 07:29:38;;;;;;;;;38.00;34.50;;;;;21.77;40.54;101173.24;112003;1245;20263;-47
2022/03/03 07:32:04;;;;;;;;;33.00;31.50;;;;;21.74;40.77;101171.90;111955;1245;19178;-47
2022/03/03 07:34:29;;;;;;;;;42.00;34.00;;;;;21.72;40.82;101171.45;112009;1245;19223;-49
2022/03/03 07:36:55;;;;;;;;;39.50;33.50;;;;;21.74;40.56;101173.38;112031;1245;20011;-49
2022/03/03 07:39:21;;;;;;;;;37.50;33.50;;;;;21.81;40.62;101170.57;112009;1245;23693;-52
2022/03/03 07:41:47;;;;;;;;;41.00;37.50;;;;;21.83;40.72;101174.36;111965;1245;19286;-48
2022/03/03 07:44:13;;;;;;;;;41.00;37.00;;;;;21.81;40.54;101173.83;112022;1245;21862;-49
2022/03/03 07:46:39;;;;;;;;;38.00;34.50;;;;;21.80;40.54;101178.85;112029;1245;19073;-49
2022/03/03 07:49:05;;;;;;;;;37.50;36.00;;;;;21.80;40.52;101179.64;112002;1245;23912;-49
2022/03/03 07:51:31;;;;;;;;;38.00;34.00;;;;;21.80;40.66;101180.23;111972;1245;19991;-49
2022/03/03 07:53:56;;;;;;;;;39.50;34.00;;;;;21.79;40.68;101175.21;112046;1245;23336;-51
2022/03/03 07:56:22;;;;;;;;;33.00;29.50;;;;;21.79;40.76;101178.90;112023;1245;19394;-51
2022/03/03 07:58:48;;;;;;;;;33.50;29.00;;;;;21.78;40.89;101176.38;112022;1245;20048;-50
2022/03/03 08:01:17;;;;;;;;;37.00;32.00;;;;;21.73;41.14;101183.58;111983;1245;19910;-50
2022/03/03 08:03:43;;;;;;;;;36.00;34.00;;;;;21.69;40.20;101176.73;112017;1245;20234;-50
2022/03/03 08:06:09;;;;;;;;;38.33;33.33;;;;;21.69;39.98;101184.90;111977;1245;20219;-50
2022/03/03 08:08:35;;;;;;;;;33.00;29.00;;;;;21.72;39.59;101186.21;112007;1245;19614;-50
2022/03/03 08:11:01;;;;;;;;;40.00;34.00;;;;;21.73;39.73;101187.23;112005;1245;19290;-50
2022/03/03 08:13:27;;;;;;;;;36.00;30.50;;;;;21.74;39.75;101187.39;111992;1245;19999;-54
2022/03/03 08:15:53;;;;;;;;;30.00;28.00;;;;;21.75;39.88;101185.98;112012;1245;23122;-53
2022/03/03 08:18:18;;;;;;;;;38.00;30.00;;;;;21.68;40.08;101191.16;111987;1245;19264;-51
2022/03/03 08:20:44;;;;;;;;;34.50;32.00;;;;;21.58;40.15;101187.14;112036;1245;19988;-50
2022/03/03 08:23:10;;;;;;;;;37.00;32.50;;;;;21.63;40.13;101184.10;111973;1245;19177;-51
2022/03/03 08:25:36;;;;;;;;;32.00;28.00;;;;;21.66;40.05;101182.70;111971;1243;19593;-50
2022/03/03 08:28:03;;;;;;;;;32.00;29.00;;;;;21.65;40.31;101182.80;111945;1244;22297;-49
2022/03/03 08:30:28;;;;;;;;;30.67;25.33;;;;;21.65;40.38;101191.50;111909;1245;19385;-51
2022/03/03 08:32:54;;;;;;;;;29.00;26.50;;;;;21.66;40.54;101188.29;112016;1245;19261;-52
2022/03/03 08:35:20;;;;;;;;;32.00;28.50;;;;;21.73;40.22;101193.36;111981;1245;23501;-50
2022/03/03 08:37:46;;;;;;;;;32.00;30.00;;;;;21.75;40.30;101188.61;111996;1245;19221;-50
2022/03/03 08:40:12;;;;;;;;;33.50;28.00;;;;;21.76;40.37;101192.98;112027;1245;24806;-49
2022/03/03 08:42:38;;;;;;;;;33.50;29.00;;;;;21.76;40.63;101195.95;111962;1245;20154;-52
2022/03/03 08:45:04;;;;;;;;;31.50;28.50;;;;;21.75;40.48;101198.16;111999;1245;23722;-51
2022/03/03 08:47:30;;;;;;;;;31.50;28.50;;;;;21.76;40.69;101194.48;112039;1245;19229;-50
2022/03/03 08:49:56;;;;;;;;;27.00;24.33;;;;;21.73;40.68;101193.73;112002;1245;20426;-50
2022/03/03 08:52:22;;;;;;;;;32.00;28.00;;;;;21.73;40.80;101200.08;112009;1245;19090;-53
2022/03/03 08:54:50;;;;;;;;;32.00;28.33;;;;;21.73;40.93;101202.44;112042;1245;19663;-51
2022/03/03 08:57:26;;;;;;;;;30.33;26.67;;;;;21.75;40.99;101198.54;112009;1245;20395;-50
2022/03/03 08:59:52;;;;;;;;;28.00;25.00;;;;;21.78;41.12;101195.10;112033;1245;19066;-50
2022/03/03 09:02:18;;;;;;;;;29.50;27.00;;;;;21.80;41.07;101196.48;112014;1245;22029;-49
2022/03/03 09:04:49;;;;;;;;;32.00;25.33;;;;;21.82;40.59;101203.77;111975;1245;20456;-50
2022/03/03 09:07:15;;;;;;;;;27.00;25.00;;;;;21.82;40.80;101202.01;111988;1245;19301;-50
2022/03/03 09:09:41;;;;;;;;;31.00;24.50;;;;;21.84;40.82;101205.23;111998;1245;19480;-52
2022/03/03 09:12:07;;;;;;;;;25.00;23.50;;;;;21.86;40.85;101200.81;111986;1244;19942;-52
2022/03/03 09:14:34;;;;;;;;;27.33;27.33;;;;;21.83;40.55;101195.61;112013;1245;19311;-52
2022/03/03 09:17:00;;;;;;;;;27.67;25.00;;;;;21.83;40.75;101194.34;112000;1245;20517;-46
2022/03/03 09:19:26;;;;;;;;;31.50;24.50;;;;;21.85;40.86;101203.38;112019;1245;20032;-49
2022/03/03 09:21:52;;;;;;;;;24.00;22.67;;;;;21.85;40.81;101205.05;112037;1245;19210;-50
2022/03/03 09:24:18;;;;;;;;;24.50;24.00;;;;;21.86;40.93;101209.17;111958;1245;21301;-53
2022/03/03 09:26:44;;;;;;;;;23.00;22.00;;;;;21.84;40.77;101204.27;112067;1245;20142;-52
2022/03/03 09:29:10;;;;;;;;;28.00;25.00;;;;;21.82;40.93;101202.52;111994;1245;23823;-51
2022/03/03 09:31:35;;;;;;;;;30.00;25.50;;;;;21.80;41.09;101208.60;111912;1245;19695;-53
2022/03/03 09:34:01;;;;;;;;;26.00;24.00;;;;;21.79;41.19;101209.46;111967;1245;22939;-49
2022/03/03 09:36:27;;;;;;;;;28.00;24.00;;;;;21.77;41.47;101206.77;111948;1245;19439;-50
2022/03/03 09:38:53;;;;;;;;;28.50;25.50;;;;;21.75;41.31;101207.85;111979;1245;21913;-50
2022/03/03 09:41:19;;;;;;;;;28.00;24.00;;;;;21.75;41.27;101215.90;111966;1245;20022;-49
2022/03/03 09:43:45;;;;;;;;;26.67;25.00;;;;;21.73;41.16;101217.71;111949;1245;19365;-50
2022/03/03 09:46:11;;;;;;;;;25.00;24.00;;;;;21.74;41.16;101214.73;112021;1245;19279;-50
2022/03/03 09:48:37;;;;;;;;;29.00;24.50;;;;;21.72;40.91;101207.46;111941;1245;20384;-51
2022/03/03 09:51:03;;;;;;;;;32.50;28.50;;;;;21.72;41.11;101206.91;111957;1245;19100;-49
2022/03/03 09:53:29;;;;;;;;;30.50;25.00;;;;;21.75;40.81;101209.11;111996;1245;23635;-49
2022/03/03 09:55:54;;;;;;;;;36.00;29.00;;;;;21.78;40.83;101211.38;111960;1245;20170;-51
2022/03/03 09:58:20;;;;;;;;;33.00;29.50;;;;;21.79;40.97;101207.82;111998;1244;19107;-52
2022/03/03 10:00:46;;;;;;;;;33.00;29.00;;;;;21.79;40.87;101201.41;111952;1245;19397;-51
2022/03/03 10:03:14;;;;;;;;;30.67;28.33;;;;;21.78;40.91;101198.61;111953;1245;21715;-51
2022/03/03 10:05:40;;;;;;;;;36.00;32.00;;;;;21.77;41.24;101198.52;111848;1246;19463;-51
2022/03/03 10:08:06;;;;;;;;;33.67;30.00;;;;;21.77;41.25;101208.51;112002;1245;21033;-50
2022/03/03 10:10:32;;;;;;;;;29.00;26.00;;;;;21.76;41.04;101210.32;111977;1245;20662;-50
2022/03/03 10:12:57;;;;;;;;;63.33;50.00;;;;;21.67;40.96;101207.17;112023;1245;19058;-53
2022/03/03 10:15:23;;;;;;;;;120.33;103.67;;;;;21.35;39.50;101215.56;111958;1245;19370;-51
2022/03/03 10:17:49;;;;;;;;;277.67;227.67;;;;;21.17;38.72;101221.07;112022;1245;24464;-52
2022/03/03 10:20:15;;;;;;;;;291.00;242.25;;;;;21.06;38.71;101221.66;111973;1245;20281;-50
2022/03/03 10:22:41;;;;;;;;;276.67;227.00;;;;;21.17;38.45;101219.75;112000;1245;19490;-50
2022/03/03 10:25:07;;;;;;;;;272.75;231.50;;;;;21.23;37.84;101223.02;112027;1245;23954;-50
2022/03/03 10:27:34;;;;;;;;;253.50;212.25;;;;;21.30;38.26;101226.14;111795;1245;19090;-53
2022/03/03 10:30:01;;;;;;;;;229.50;192.00;;;;;21.28;38.10;101223.42;111805;1245;19803;-49
2022/03/03 10:32:27;;;;;;;;;191.75;162.50;;;;;21.34;37.76;101224.84;113683;1245;21586;-49
2022/03/03 10:34:53;;;;;;;;;175.75;141.75;;;;;21.35;37.36;101229.79;113712;1245;18890;-51
2022/03/03 10:37:19;;;;;;;;;177.00;147.50;;;;;21.35;37.29;101241.00;113720;1245;19606;-50
2022/03/03 10:39:45;;;;;;;;;163.67;136.67;;;;;21.38;37.05;101232.50;113731;1245;21245;-51
2022/03/03 10:42:11;;;;;;;;;145.50;119.25;;;;;21.38;36.44;101237.42;112680;1245;20355;-51
2022/03/03 10:44:37;;;;;;;;;126.00;109.67;;;;;21.38;36.57;101235.06;112034;1245;19299;-50
2022/03/03 10:47:03;;;;;;;;;118.33;103.00;;;;;21.29;35.58;101225.67;112040;1245;20001;-50
2022/03/03 10:49:29;;;;;;;;;108.00;89.00;;;;;21.16;35.09;101224.70;112031;1245;23077;-51
2022/03/03 10:51:55;;;;;;;;;104.00;81.50;;;;;20.94;34.38;101224.98;112037;1245;19336;-52
2022/03/03 10:54:20;;;;;;;;;105.00;90.00;;;;;20.82;34.80;101226.84;112021;1245;19998;-51